sensor_id;sensor_type;location;lat;lon;timestamp;temperature;humidity
18085;DHT22;9169;44.492;11.372;2022-12-11T00:01:08;11.60;67.10
18085;DHT22;9169;44.492;11.372;2022-12-11T00:03:35;11.60;67.10
18085;DHT22;9169;44.492;11.372;2022-12-11T00:06:03;11.60;67.10
18085;DHT22;9169;44.492;11.372;2022-12-11T00:08:30;11.70;67.30
18085;DHT22;9169;44.492;11.372;2022-12-11T00:10:58;11.60;67.20
18085;DHT22;9169;44.492;11.372;2022-12-11T00:13:25;11.70;67.30
18085;DHT22;9169;44.492;11.372;2022-12-11T00:15:52;11.70;67.40
18085;DHT22;9169;44.492;11.372;2022-12-11T00:18:18;11.70;67.40
18085;DHT22;9169;44.492;11.372;2022-12-11T00:20:45;11.70;67.40
18085;DHT22;9169;44.492;11.372;2022-12-11T00:23:12;11.70;67.40
18085;DHT22;9169;44.492;11.372;2022-12-11T00:25:42;11.70;67.40
18085;DHT22;9169;44.492;11.372;2022-12-11T00:28:11;11.70;67.40
18085;DHT22;9169;44.492;11.372;2022-12-11T00:30:38;11.70;67.40
18085;DHT22;9169;44.492;11.372;2022-12-11T00:33:05;11.70;67.40
18085;DHT22;9169;44.492;11.372;2022-12-11T00:35:32;11.70;67.30
18085;DHT22;9169;44.492;11.372;2022-12-11T00:37:59;11.70;67.30
18085;DHT22;9169;44.492;11.372;2022-12-11T00:40:26;11.70;67.20
18085;DHT22;9169;44.492;11.372;2022-12-11T00:42:52;11.70;67.20
18085;DHT22;9169;44.492;11.372;2022-12-11T00:45:21;11.70;67.20
18085;DHT22;9169;44.492;11.372;2022-12-11T00:47:48;11.70;67.10
18085;DHT22;9169;44.492;11.372;2022-12-11T00:50:14;11.70;67.20
18085;DHT22;9169;44.492;11.372;2022-12-11T00:52:41;11.70;67.30
18085;DHT22;9169;44.492;11.372;2022-12-11T00:55:08;11.70;67.40
18085;DHT22;9169;44.492;11.372;2022-12-11T00:57:36;11.80;67.50
18085;DHT22;9169;44.492;11.372;2022-12-11T01:00:03;11.80;67.50
18085;DHT22;9169;44.492;11.372;2022-12-11T01:02:32;11.80;67.50
18085;DHT22;9169;44.492;11.372;2022-12-11T01:04:59;11.80;67.50
18085;DHT22;9169;44.492;11.372;2022-12-11T01:07:25;11.80;67.50
18085;DHT22;9169;44.492;11.372;2022-12-11T01:09:52;11.90;67.60
18085;DHT22;9169;44.492;11.372;2022-12-11T01:12:36;11.90;67.60
18085;DHT22;9169;44.492;11.372;2022-12-11T01:15:03;11.90;67.60
18085;DHT22;9169;44.492;11.372;2022-12-11T01:17:31;11.90;67.70
18085;DHT22;9169;44.492;11.372;2022-12-11T01:19:58;11.90;67.70
18085;DHT22;9169;44.492;11.372;2022-12-11T01:22:25;11.90;67.70
18085;DHT22;9169;44.492;11.372;2022-12-11T01:24:52;11.90;67.80
18085;DHT22;9169;44.492;11.372;2022-12-11T01:27:19;11.90;67.70
18085;DHT22;9169;44.492;11.372;2022-12-11T01:29:46;11.90;67.80
18085;DHT22;9169;44.492;11.372;2022-12-11T01:32:13;11.90;67.70
18085;DHT22;9169;44.492;11.372;2022-12-11T01:34:42;11.90;67.70
18085;DHT22;9169;44.492;11.372;2022-12-11T01:37:08;11.90;67.70
18085;DHT22;9169;44.492;11.372;2022-12-11T01:39:35;11.90;67.80
18085;DHT22;9169;44.492;11.372;2022-12-11T01:42:03;11.90;67.70
18085;DHT22;9169;44.492;11.372;2022-12-11T01:47:16;12.00;67.80
18085;DHT22;9169;44.492;11.372;2022-12-11T01:49:44;12.00;67.70
18085;DHT22;9169;44.492;11.372;2022-12-11T01:52:12;12.00;67.50
18085;DHT22;9169;44.492;11.372;2022-12-11T01:54:40;12.00;67.60
18085;DHT22;9169;44.492;11.372;2022-12-11T01:57:08;12.00;67.60
18085;DHT22;9169;44.492;11.372;2022-12-11T01:59:37;12.00;67.60
18085;DHT22;9169;44.492;11.372;2022-12-11T02:02:06;12.00;67.40
18085;DHT22;9169;44.492;11.372;2022-12-11T02:04:34;11.90;67.30
18085;DHT22;9169;44.492;11.372;2022-12-11T02:07:02;11.90;67.40
18085;DHT22;9169;44.492;11.372;2022-12-11T02:09:30;11.90;67.40
18085;DHT22;9169;44.492;11.372;2022-12-11T02:11:59;11.90;67.30
18085;DHT22;9169;44.492;11.372;2022-12-11T02:14:28;11.80;67.40
18085;DHT22;9169;44.492;11.372;2022-12-11T02:16:57;11.80;67.60
18085;DHT22;9169;44.492;11.372;2022-12-11T02:19:30;11.80;67.60
18085;DHT22;9169;44.492;11.372;2022-12-11T02:21:58;11.80;67.60
18085;DHT22;9169;44.492;11.372;2022-12-11T02:24:34;11.80;67.60
18085;DHT22;9169;44.492;11.372;2022-12-11T02:27:17;11.80;67.60
18085;DHT22;9169;44.492;11.372;2022-12-11T02:29:48;11.80;67.50
18085;DHT22;9169;44.492;11.372;2022-12-11T02:32:18;11.80;67.50
18085;DHT22;9169;44.492;11.372;2022-12-11T02:34:48;11.80;67.60
18085;DHT22;9169;44.492;11.372;2022-12-11T02:37:17;11.80;67.60
18085;DHT22;9169;44.492;11.372;2022-12-11T02:39:45;11.80;67.50
18085;DHT22;9169;44.492;11.372;2022-12-11T02:42:13;11.80;68.20
18085;DHT22;9169;44.492;11.372;2022-12-11T02:44:42;11.80;67.40
18085;DHT22;9169;44.492;11.372;2022-12-11T02:47:11;11.80;67.20
18085;DHT22;9169;44.492;11.372;2022-12-11T02:49:39;11.80;67.10
18085;DHT22;9169;44.492;11.372;2022-12-11T02:52:07;11.80;67.10
18085;DHT22;9169;44.492;11.372;2022-12-11T02:54:39;11.80;67.10
18085;DHT22;9169;44.492;11.372;2022-12-11T02:57:11;11.80;67.10
18085;DHT22;9169;44.492;11.372;2022-12-11T02:59:40;11.80;67.20
18085;DHT22;9169;44.492;11.372;2022-12-11T03:02:08;11.80;67.00
18085;DHT22;9169;44.492;11.372;2022-12-11T03:04:38;11.80;67.00
18085;DHT22;9169;44.492;11.372;2022-12-11T03:07:06;11.80;67.10
18085;DHT22;9169;44.492;11.372;2022-12-11T03:09:36;11.90;67.20
18085;DHT22;9169;44.492;11.372;2022-12-11T03:12:04;11.90;67.30
18085;DHT22;9169;44.492;11.372;2022-12-11T03:14:30;11.90;67.30
18085;DHT22;9169;44.492;11.372;2022-12-11T03:16:59;11.90;67.10
18085;DHT22;9169;44.492;11.372;2022-12-11T03:19:28;11.90;67.00
18085;DHT22;9169;44.492;11.372;2022-12-11T03:21:59;11.90;67.00
18085;DHT22;9169;44.492;11.372;2022-12-11T03:24:28;11.90;67.00
18085;DHT22;9169;44.492;11.372;2022-12-11T03:26:57;11.90;67.00
18085;DHT22;9169;44.492;11.372;2022-12-11T03:29:26;12.00;67.00
18085;DHT22;9169;44.492;11.372;2022-12-11T03:31:55;11.90;67.00
18085;DHT22;9169;44.492;11.372;2022-12-11T03:34:25;11.90;67.00
18085;DHT22;9169;44.492;11.372;2022-12-11T03:36:53;11.90;66.90
18085;DHT22;9169;44.492;11.372;2022-12-11T03:39:24;11.90;67.00
18085;DHT22;9169;44.492;11.372;2022-12-11T03:41:52;11.90;67.00
18085;DHT22;9169;44.492;11.372;2022-12-11T03:44:19;11.90;67.00
18085;DHT22;9169;44.492;11.372;2022-12-11T03:46:46;11.90;67.00
18085;DHT22;9169;44.492;11.372;2022-12-11T03:49:18;11.90;67.00
18085;DHT22;9169;44.492;11.372;2022-12-11T03:51:47;11.90;67.00
18085;DHT22;9169;44.492;11.372;2022-12-11T03:54:14;11.90;67.10
18085;DHT22;9169;44.492;11.372;2022-12-11T03:56:43;11.90;67.20
18085;DHT22;9169;44.492;11.372;2022-12-11T03:59:11;12.00;67.40
18085;DHT22;9169;44.492;11.372;2022-12-11T04:01:38;11.90;67.40
18085;DHT22;9169;44.492;11.372;2022-12-11T04:04:05;12.00;67.50
18085;DHT22;9169;44.492;11.372;2022-12-11T04:06:31;12.00;67.60
18085;DHT22;9169;44.492;11.372;2022-12-11T04:08:58;12.00;67.60
18085;DHT22;9169;44.492;11.372;2022-12-11T04:11:25;12.00;67.70
18085;DHT22;9169;44.492;11.372;2022-12-11T04:14:03;12.00;67.70
18085;DHT22;9169;44.492;11.372;2022-12-11T04:16:47;12.00;67.80
18085;DHT22;9169;44.492;11.372;2022-12-11T04:19:14;12.00;68.00
18085;DHT22;9169;44.492;11.372;2022-12-11T04:21:58;12.00;68.10
18085;DHT22;9169;44.492;11.372;2022-12-11T04:24:54;12.00;68.10
18085;DHT22;9169;44.492;11.372;2022-12-11T04:27:21;11.90;68.00
18085;DHT22;9169;44.492;11.372;2022-12-11T04:30:09;12.00;68.10
18085;DHT22;9169;44.492;11.372;2022-12-11T04:32:36;12.00;68.00
18085;DHT22;9169;44.492;11.372;2022-12-11T04:35:03;11.90;67.70
18085;DHT22;9169;44.492;11.372;2022-12-11T04:37:30;11.90;67.80
18085;DHT22;9169;44.492;11.372;2022-12-11T04:39:56;11.90;67.70
18085;DHT22;9169;44.492;11.372;2022-12-11T04:42:23;11.90;67.50
18085;DHT22;9169;44.492;11.372;2022-12-11T04:44:50;11.90;67.30
18085;DHT22;9169;44.492;11.372;2022-12-11T04:47:18;11.90;67.20
18085;DHT22;9169;44.492;11.372;2022-12-11T04:49:45;11.90;67.00
18085;DHT22;9169;44.492;11.372;2022-12-11T04:52:12;11.90;66.90
18085;DHT22;9169;44.492;11.372;2022-12-11T04:54:39;11.90;66.70
18085;DHT22;9169;44.492;11.372;2022-12-11T04:57:06;11.90;66.50
18085;DHT22;9169;44.492;11.372;2022-12-11T04:59:33;11.90;66.30
18085;DHT22;9169;44.492;11.372;2022-12-11T05:01:59;11.80;66.20
18085;DHT22;9169;44.492;11.372;2022-12-11T05:04:30;11.80;66.20
18085;DHT22;9169;44.492;11.372;2022-12-11T05:06:57;11.80;66.20
18085;DHT22;9169;44.492;11.372;2022-12-11T05:09:24;11.80;66.90
18085;DHT22;9169;44.492;11.372;2022-12-11T05:11:51;11.80;66.10
18085;DHT22;9169;44.492;11.372;2022-12-11T05:14:18;11.70;66.10
18085;DHT22;9169;44.492;11.372;2022-12-11T05:16:45;11.70;66.00
18085;DHT22;9169;44.492;11.372;2022-12-11T05:19:12;11.70;65.80
18085;DHT22;9169;44.492;11.372;2022-12-11T05:21:40;11.60;65.80
18085;DHT22;9169;44.492;11.372;2022-12-11T05:24:07;11.50;65.90
18085;DHT22;9169;44.492;11.372;2022-12-11T05:26:34;11.40;65.80
18085;DHT22;9169;44.492;11.372;2022-12-11T05:29:00;11.40;65.60
18085;DHT22;9169;44.492;11.372;2022-12-11T05:31:27;11.30;65.40
18085;DHT22;9169;44.492;11.372;2022-12-11T05:33:54;11.30;65.50
18085;DHT22;9169;44.492;11.372;2022-12-11T05:36:22;11.20;65.60
18085;DHT22;9169;44.492;11.372;2022-12-11T05:38:51;11.20;65.70
18085;DHT22;9169;44.492;11.372;2022-12-11T05:41:19;11.20;65.70
18085;DHT22;9169;44.492;11.372;2022-12-11T05:43:46;11.20;65.80
18085;DHT22;9169;44.492;11.372;2022-12-11T05:46:14;11.20;65.90
18085;DHT22;9169;44.492;11.372;2022-12-11T05:48:48;11.20;66.00
18085;DHT22;9169;44.492;11.372;2022-12-11T05:51:16;11.20;66.20
18085;DHT22;9169;44.492;11.372;2022-12-11T05:53:43;11.20;66.30
18085;DHT22;9169;44.492;11.372;2022-12-11T05:56:12;11.20;66.40
18085;DHT22;9169;44.492;11.372;2022-12-11T05:58:39;11.20;66.40
18085;DHT22;9169;44.492;11.372;2022-12-11T06:01:07;11.20;66.40
18085;DHT22;9169;44.492;11.372;2022-12-11T06:03:34;11.20;66.40
18085;DHT22;9169;44.492;11.372;2022-12-11T06:06:00;11.20;66.40
18085;DHT22;9169;44.492;11.372;2022-12-11T06:08:27;11.20;66.70
18085;DHT22;9169;44.492;11.372;2022-12-11T06:10:54;11.20;66.80
18085;DHT22;9169;44.492;11.372;2022-12-11T06:13:22;11.20;66.80
18085;DHT22;9169;44.492;11.372;2022-12-11T06:15:49;11.20;66.90
18085;DHT22;9169;44.492;11.372;2022-12-11T06:18:16;11.10;66.70
18085;DHT22;9169;44.492;11.372;2022-12-11T06:20:43;11.10;66.80
18085;DHT22;9169;44.492;11.372;2022-12-11T06:23:10;11.20;66.90
18085;DHT22;9169;44.492;11.372;2022-12-11T06:25:36;11.10;66.80
18085;DHT22;9169;44.492;11.372;2022-12-11T06:28:03;11.10;67.40
18085;DHT22;9169;44.492;11.372;2022-12-11T06:30:31;11.10;66.50
18085;DHT22;9169;44.492;11.372;2022-12-11T06:32:58;11.10;66.60
18085;DHT22;9169;44.492;11.372;2022-12-11T06:35:25;11.10;66.70
18085;DHT22;9169;44.492;11.372;2022-12-11T06:37:52;11.10;67.40
18085;DHT22;9169;44.492;11.372;2022-12-11T06:40:18;11.10;66.70
18085;DHT22;9169;44.492;11.372;2022-12-11T06:42:45;11.10;66.70
18085;DHT22;9169;44.492;11.372;2022-12-11T06:45:12;11.20;66.70
18085;DHT22;9169;44.492;11.372;2022-12-11T06:47:40;11.20;66.50
18085;DHT22;9169;44.492;11.372;2022-12-11T06:50:07;11.20;66.40
18085;DHT22;9169;44.492;11.372;2022-12-11T06:52:34;11.20;66.00
18085;DHT22;9169;44.492;11.372;2022-12-11T06:55:01;11.10;65.60
18085;DHT22;9169;44.492;11.372;2022-12-11T06:57:27;11.10;65.70
18085;DHT22;9169;44.492;11.372;2022-12-11T06:59:54;11.00;65.60
18085;DHT22;9169;44.492;11.372;2022-12-11T07:02:24;11.00;65.60
18085;DHT22;9169;44.492;11.372;2022-12-11T07:08:06;10.90;65.00
18085;DHT22;9169;44.492;11.372;2022-12-11T07:10:33;10.90;65.00
18085;DHT22;9169;44.492;11.372;2022-12-11T07:13:12;10.80;64.80
18085;DHT22;9169;44.492;11.372;2022-12-11T07:15:46;10.80;65.00
18085;DHT22;9169;44.492;11.372;2022-12-11T07:18:17;10.80;64.90
18085;DHT22;9169;44.492;11.372;2022-12-11T07:20:44;10.80;64.80
18085;DHT22;9169;44.492;11.372;2022-12-11T07:23:15;10.80;64.80
18085;DHT22;9169;44.492;11.372;2022-12-11T07:25:43;10.70;64.70
18085;DHT22;9169;44.492;11.372;2022-12-11T07:28:14;10.80;64.60
18085;DHT22;9169;44.492;11.372;2022-12-11T07:30:45;10.80;64.50
18085;DHT22;9169;44.492;11.372;2022-12-11T07:33:15;10.80;64.30
18085;DHT22;9169;44.492;11.372;2022-12-11T07:35:43;10.70;64.10
18085;DHT22;9169;44.492;11.372;2022-12-11T07:38:10;10.70;64.10
18085;DHT22;9169;44.492;11.372;2022-12-11T07:40:38;10.70;63.60
18085;DHT22;9169;44.492;11.372;2022-12-11T07:43:05;10.60;63.60
18085;DHT22;9169;44.492;11.372;2022-12-11T07:45:32;10.50;63.70
18085;DHT22;9169;44.492;11.372;2022-12-11T07:47:59;10.50;63.90
18085;DHT22;9169;44.492;11.372;2022-12-11T07:50:26;10.40;63.70
18085;DHT22;9169;44.492;11.372;2022-12-11T07:52:52;10.40;63.70
18085;DHT22;9169;44.492;11.372;2022-12-11T07:55:19;10.30;63.80
18085;DHT22;9169;44.492;11.372;2022-12-11T07:57:47;10.30;64.00
18085;DHT22;9169;44.492;11.372;2022-12-11T08:00:14;10.30;64.10
18085;DHT22;9169;44.492;11.372;2022-12-11T08:02:41;10.30;64.20
18085;DHT22;9169;44.492;11.372;2022-12-11T08:05:08;10.30;64.20
18085;DHT22;9169;44.492;11.372;2022-12-11T08:07:35;10.20;64.20
18085;DHT22;9169;44.492;11.372;2022-12-11T08:10:02;10.20;64.30
18085;DHT22;9169;44.492;11.372;2022-12-11T08:12:29;10.10;64.30
18085;DHT22;9169;44.492;11.372;2022-12-11T08:14:57;10.20;64.50
18085;DHT22;9169;44.492;11.372;2022-12-11T08:17:24;10.10;64.30
18085;DHT22;9169;44.492;11.372;2022-12-11T08:19:50;10.00;64.20
18085;DHT22;9169;44.492;11.372;2022-12-11T08:22:17;10.00;64.40
18085;DHT22;9169;44.492;11.372;2022-12-11T08:24:45;10.00;64.50
18085;DHT22;9169;44.492;11.372;2022-12-11T08:27:12;10.00;64.60
18085;DHT22;9169;44.492;11.372;2022-12-11T08:29:38;10.10;64.80
18085;DHT22;9169;44.492;11.372;2022-12-11T08:32:07;10.10;64.60
18085;DHT22;9169;44.492;11.372;2022-12-11T08:34:34;10.10;64.50
18085;DHT22;9169;44.492;11.372;2022-12-11T08:37:00;10.00;64.20
18085;DHT22;9169;44.492;11.372;2022-12-11T08:39:27;10.00;64.00
18085;DHT22;9169;44.492;11.372;2022-12-11T08:41:54;9.90;65.00
18085;DHT22;9169;44.492;11.372;2022-12-11T08:44:21;9.80;65.10
18085;DHT22;9169;44.492;11.372;2022-12-11T08:46:49;9.80;65.00
18085;DHT22;9169;44.492;11.372;2022-12-11T08:49:17;9.80;65.50
18085;DHT22;9169;44.492;11.372;2022-12-11T08:51:44;9.80;64.90
18085;DHT22;9169;44.492;11.372;2022-12-11T08:54:11;9.80;64.70
18085;DHT22;9169;44.492;11.372;2022-12-11T08:56:37;9.80;64.60
18085;DHT22;9169;44.492;11.372;2022-12-11T08:59:04;9.80;64.60
18085;DHT22;9169;44.492;11.372;2022-12-11T09:01:31;9.70;64.50
18085;DHT22;9169;44.492;11.372;2022-12-11T09:03:58;9.70;64.70
18085;DHT22;9169;44.492;11.372;2022-12-11T09:06:27;9.70;64.70
18085;DHT22;9169;44.492;11.372;2022-12-11T09:08:55;9.70;64.80
18085;DHT22;9169;44.492;11.372;2022-12-11T09:11:22;9.80;64.90
18085;DHT22;9169;44.492;11.372;2022-12-11T09:13:49;9.80;64.80
18085;DHT22;9169;44.492;11.372;2022-12-11T09:16:17;9.80;64.90
18085;DHT22;9169;44.492;11.372;2022-12-11T09:18:44;9.80;65.00
18085;DHT22;9169;44.492;11.372;2022-12-11T09:21:12;9.90;65.10
18085;DHT22;9169;44.492;11.372;2022-12-11T09:23:40;9.90;65.10
18085;DHT22;9169;44.492;11.372;2022-12-11T09:26:07;9.90;65.10
18085;DHT22;9169;44.492;11.372;2022-12-11T09:28:35;9.90;65.40
18085;DHT22;9169;44.492;11.372;2022-12-11T09:31:06;9.90;65.50
18085;DHT22;9169;44.492;11.372;2022-12-11T09:33:33;9.90;65.50
18085;DHT22;9169;44.492;11.372;2022-12-11T09:36:00;9.90;66.10
18085;DHT22;9169;44.492;11.372;2022-12-11T09:38:27;9.90;65.30
18085;DHT22;9169;44.492;11.372;2022-12-11T09:40:55;9.80;65.20
18085;DHT22;9169;44.492;11.372;2022-12-11T09:43:27;9.80;65.30
18085;DHT22;9169;44.492;11.372;2022-12-11T09:45:55;9.80;65.50
18085;DHT22;9169;44.492;11.372;2022-12-11T09:48:23;9.80;65.40
18085;DHT22;9169;44.492;11.372;2022-12-11T09:50:50;9.80;65.70
18085;DHT22;9169;44.492;11.372;2022-12-11T09:53:20;9.80;65.90
18085;DHT22;9169;44.492;11.372;2022-12-11T09:55:50;9.80;65.70
18085;DHT22;9169;44.492;11.372;2022-12-11T09:58:25;9.80;65.60
18085;DHT22;9169;44.492;11.372;2022-12-11T10:00:54;9.80;65.70
18085;DHT22;9169;44.492;11.372;2022-12-11T10:03:26;9.90;65.90
18085;DHT22;9169;44.492;11.372;2022-12-11T10:05:57;9.90;65.80
18085;DHT22;9169;44.492;11.372;2022-12-11T10:08:29;10.00;64.80
18085;DHT22;9169;44.492;11.372;2022-12-11T10:11:00;10.00;64.70
18085;DHT22;9169;44.492;11.372;2022-12-11T10:13:32;10.00;64.20
18085;DHT22;9169;44.492;11.372;2022-12-11T10:16:03;10.00;64.20
18085;DHT22;9169;44.492;11.372;2022-12-11T10:18:31;10.00;64.30
18085;DHT22;9169;44.492;11.372;2022-12-11T10:20:59;10.00;64.30
18085;DHT22;9169;44.492;11.372;2022-12-11T10:23:28;10.00;63.90
18085;DHT22;9169;44.492;11.372;2022-12-11T10:26:02;10.00;63.70
18085;DHT22;9169;44.492;11.372;2022-12-11T10:28:30;10.00;63.60
18085;DHT22;9169;44.492;11.372;2022-12-11T10:30:59;10.00;63.60
18085;DHT22;9169;44.492;11.372;2022-12-11T10:33:28;10.00;63.70
18085;DHT22;9169;44.492;11.372;2022-12-11T10:35:59;10.00;63.60
18085;DHT22;9169;44.492;11.372;2022-12-11T10:38:26;10.00;63.70
18085;DHT22;9169;44.492;11.372;2022-12-11T10:40:55;10.00;63.90
18085;DHT22;9169;44.492;11.372;2022-12-11T10:43:32;10.10;64.10
18085;DHT22;9169;44.492;11.372;2022-12-11T10:45:59;10.10;64.00
18085;DHT22;9169;44.492;11.372;2022-12-11T10:48:26;10.10;64.10
18085;DHT22;9169;44.492;11.372;2022-12-11T10:50:57;10.20;64.00
18085;DHT22;9169;44.492;11.372;2022-12-11T10:53:24;10.10;64.10
18085;DHT22;9169;44.492;11.372;2022-12-11T10:55:51;10.10;64.50
18085;DHT22;9169;44.492;11.372;2022-12-11T10:58:19;10.10;63.80
18085;DHT22;9169;44.492;11.372;2022-12-11T11:00:48;10.10;63.90
18085;DHT22;9169;44.492;11.372;2022-12-11T11:03:25;10.00;63.90
18085;DHT22;9169;44.492;11.372;2022-12-11T11:06:00;10.00;64.10
18085;DHT22;9169;44.492;11.372;2022-12-11T11:08:27;10.10;64.10
18085;DHT22;9169;44.492;11.372;2022-12-11T11:11:01;10.00;63.90
18085;DHT22;9169;44.492;11.372;2022-12-11T11:13:29;10.00;64.00
18085;DHT22;9169;44.492;11.372;2022-12-11T11:16:00;10.00;64.00
18085;DHT22;9169;44.492;11.372;2022-12-11T11:18:28;10.00;64.20
18085;DHT22;9169;44.492;11.372;2022-12-11T11:20:55;10.00;64.50
18085;DHT22;9169;44.492;11.372;2022-12-11T11:23:23;10.00;64.60
18085;DHT22;9169;44.492;11.372;2022-12-11T11:25:50;10.10;64.70
18085;DHT22;9169;44.492;11.372;2022-12-11T11:28:19;10.20;65.50
18085;DHT22;9169;44.492;11.372;2022-12-11T11:30:54;10.20;64.70
18085;DHT22;9169;44.492;11.372;2022-12-11T11:33:22;10.20;64.60
18085;DHT22;9169;44.492;11.372;2022-12-11T11:35:52;10.20;64.30
18085;DHT22;9169;44.492;11.372;2022-12-11T11:38:20;10.20;64.40
18085;DHT22;9169;44.492;11.372;2022-12-11T11:40:56;10.20;64.50
18085;DHT22;9169;44.492;11.372;2022-12-11T11:43:27;10.20;64.50
18085;DHT22;9169;44.492;11.372;2022-12-11T11:45:58;10.20;64.30
18085;DHT22;9169;44.492;11.372;2022-12-11T11:48:34;10.20;64.40
18085;DHT22;9169;44.492;11.372;2022-12-11T11:51:04;10.20;64.50
18085;DHT22;9169;44.492;11.372;2022-12-11T11:53:33;10.20;64.40
18085;DHT22;9169;44.492;11.372;2022-12-11T11:56:06;10.20;64.40
18085;DHT22;9169;44.492;11.372;2022-12-11T11:58:40;10.20;64.40
18085;DHT22;9169;44.492;11.372;2022-12-11T12:01:09;10.20;64.30
18085;DHT22;9169;44.492;11.372;2022-12-11T12:03:40;10.10;64.30
18085;DHT22;9169;44.492;11.372;2022-12-11T12:06:09;10.10;64.40
18085;DHT22;9169;44.492;11.372;2022-12-11T12:08:40;10.10;64.40
18085;DHT22;9169;44.492;11.372;2022-12-11T12:11:09;10.10;64.50
18085;DHT22;9169;44.492;11.372;2022-12-11T12:13:40;10.00;64.40
18085;DHT22;9169;44.492;11.372;2022-12-11T12:16:10;10.00;64.50
18085;DHT22;9169;44.492;11.372;2022-12-11T12:18:44;10.00;64.60
18085;DHT22;9169;44.492;11.372;2022-12-11T12:21:16;10.10;64.70
18085;DHT22;9169;44.492;11.372;2022-12-11T12:23:51;10.10;64.60
18085;DHT22;9169;44.492;11.372;2022-12-11T12:26:22;10.00;64.30
18085;DHT22;9169;44.492;11.372;2022-12-11T12:28:51;10.00;64.40
18085;DHT22;9169;44.492;11.372;2022-12-11T12:31:29;10.00;64.60
18085;DHT22;9169;44.492;11.372;2022-12-11T12:34:01;10.10;64.70
18085;DHT22;9169;44.492;11.372;2022-12-11T12:36:33;10.10;64.70
18085;DHT22;9169;44.492;11.372;2022-12-11T12:39:01;10.20;64.80
18085;DHT22;9169;44.492;11.372;2022-12-11T12:41:32;10.20;64.60
18085;DHT22;9169;44.492;11.372;2022-12-11T12:44:05;10.20;64.50
18085;DHT22;9169;44.492;11.372;2022-12-11T12:46:40;10.30;64.50
18085;DHT22;9169;44.492;11.372;2022-12-11T12:49:11;10.30;64.50
18085;DHT22;9169;44.492;11.372;2022-12-11T12:51:40;10.20;64.50
18085;DHT22;9169;44.492;11.372;2022-12-11T12:54:09;10.20;64.40
18085;DHT22;9169;44.492;11.372;2022-12-11T12:56:38;10.20;64.60
18085;DHT22;9169;44.492;11.372;2022-12-11T12:59:17;10.20;64.60
18085;DHT22;9169;44.492;11.372;2022-12-11T13:01:45;10.20;64.60
18085;DHT22;9169;44.492;11.372;2022-12-11T13:04:22;10.20;64.50
18085;DHT22;9169;44.492;11.372;2022-12-11T13:06:51;10.20;64.30
18085;DHT22;9169;44.492;11.372;2022-12-11T13:09:18;10.20;64.30
18085;DHT22;9169;44.492;11.372;2022-12-11T13:11:47;10.20;64.30
18085;DHT22;9169;44.492;11.372;2022-12-11T13:14:21;10.20;64.40
18085;DHT22;9169;44.492;11.372;2022-12-11T13:16:51;10.20;64.50
18085;DHT22;9169;44.492;11.372;2022-12-11T13:19:26;10.20;64.60
18085;DHT22;9169;44.492;11.372;2022-12-11T13:21:54;10.20;64.60
18085;DHT22;9169;44.492;11.372;2022-12-11T13:24:23;10.20;64.70
18085;DHT22;9169;44.492;11.372;2022-12-11T13:26:51;10.20;64.70
18085;DHT22;9169;44.492;11.372;2022-12-11T13:29:27;10.20;64.60
18085;DHT22;9169;44.492;11.372;2022-12-11T13:31:56;10.30;64.70
18085;DHT22;9169;44.492;11.372;2022-12-11T13:34:23;10.30;64.70
18085;DHT22;9169;44.492;11.372;2022-12-11T13:36:51;10.30;64.70
18085;DHT22;9169;44.492;11.372;2022-12-11T13:39:19;10.30;64.70
18085;DHT22;9169;44.492;11.372;2022-12-11T13:41:49;10.30;64.70
18085;DHT22;9169;44.492;11.372;2022-12-11T13:44:20;10.30;64.60
18085;DHT22;9169;44.492;11.372;2022-12-11T13:46:48;10.40;64.60
18085;DHT22;9169;44.492;11.372;2022-12-11T13:49:20;10.40;64.20
18085;DHT22;9169;44.492;11.372;2022-12-11T13:51:51;10.40;64.10
18085;DHT22;9169;44.492;11.372;2022-12-11T13:54:18;10.40;63.80
18085;DHT22;9169;44.492;11.372;2022-12-11T13:56:55;10.40;63.50
18085;DHT22;9169;44.492;11.372;2022-12-11T13:59:25;10.30;63.50
18085;DHT22;9169;44.492;11.372;2022-12-11T14:01:56;10.30;63.10
18085;DHT22;9169;44.492;11.372;2022-12-11T14:04:24;10.20;62.80
18085;DHT22;9169;44.492;11.372;2022-12-11T14:06:53;10.20;63.10
18085;DHT22;9169;44.492;11.372;2022-12-11T14:09:21;10.20;63.10
18085;DHT22;9169;44.492;11.372;2022-12-11T14:11:49;10.10;63.10
18085;DHT22;9169;44.492;11.372;2022-12-11T14:14:18;10.20;63.50
18085;DHT22;9169;44.492;11.372;2022-12-11T14:16:47;10.20;64.30
18085;DHT22;9169;44.492;11.372;2022-12-11T14:19:15;10.20;63.60
18085;DHT22;9169;44.492;11.372;2022-12-11T14:21:53;10.20;63.60
18085;DHT22;9169;44.492;11.372;2022-12-11T14:24:21;10.20;63.60
18085;DHT22;9169;44.492;11.372;2022-12-11T14:26:49;10.20;63.60
18085;DHT22;9169;44.492;11.372;2022-12-11T14:29:22;10.10;63.80
18085;DHT22;9169;44.492;11.372;2022-12-11T14:31:49;10.20;64.20
18085;DHT22;9169;44.492;11.372;2022-12-11T14:34:17;10.10;64.20
18085;DHT22;9169;44.492;11.372;2022-12-11T14:36:44;10.20;64.40
18085;DHT22;9169;44.492;11.372;2022-12-11T14:39:12;10.20;64.40
18085;DHT22;9169;44.492;11.372;2022-12-11T14:41:44;10.20;64.40
18085;DHT22;9169;44.492;11.372;2022-12-11T14:44:13;10.20;64.40
18085;DHT22;9169;44.492;11.372;2022-12-11T14:46:42;10.20;64.50
18085;DHT22;9169;44.492;11.372;2022-12-11T14:49:11;10.20;64.60
18085;DHT22;9169;44.492;11.372;2022-12-11T14:51:42;10.10;64.70
18085;DHT22;9169;44.492;11.372;2022-12-11T14:54:10;10.20;65.00
18085;DHT22;9169;44.492;11.372;2022-12-11T14:56:40;10.10;65.00
18085;DHT22;9169;44.492;11.372;2022-12-11T14:59:15;10.10;64.90
18085;DHT22;9169;44.492;11.372;2022-12-11T15:01:43;10.10;64.90
18085;DHT22;9169;44.492;11.372;2022-12-11T15:04:18;10.10;64.80
18085;DHT22;9169;44.492;11.372;2022-12-11T15:06:48;10.10;64.80
18085;DHT22;9169;44.492;11.372;2022-12-11T15:09:18;10.10;64.80
18085;DHT22;9169;44.492;11.372;2022-12-11T15:11:45;10.00;64.70
18085;DHT22;9169;44.492;11.372;2022-12-11T15:14:16;10.00;64.70
18085;DHT22;9169;44.492;11.372;2022-12-11T15:16:43;10.10;64.90
18085;DHT22;9169;44.492;11.372;2022-12-11T15:19:15;10.10;64.90
18085;DHT22;9169;44.492;11.372;2022-12-11T15:21:43;10.00;64.70
18085;DHT22;9169;44.492;11.372;2022-12-11T15:24:21;10.00;64.60
18085;DHT22;9169;44.492;11.372;2022-12-11T15:26:48;10.00;64.60
18085;DHT22;9169;44.492;11.372;2022-12-11T15:29:24;10.00;64.60
18085;DHT22;9169;44.492;11.372;2022-12-11T15:31:57;10.00;64.50
18085;DHT22;9169;44.492;11.372;2022-12-11T15:34:24;9.90;65.60
18085;DHT22;9169;44.492;11.372;2022-12-11T15:36:51;9.90;65.50
18085;DHT22;9169;44.492;11.372;2022-12-11T15:39:18;10.00;64.50
18085;DHT22;9169;44.492;11.372;2022-12-11T15:41:45;10.00;64.40
18085;DHT22;9169;44.492;11.372;2022-12-11T15:44:14;10.00;64.30
18085;DHT22;9169;44.492;11.372;2022-12-11T15:46:44;10.00;64.30
18085;DHT22;9169;44.492;11.372;2022-12-11T15:49:11;9.90;65.40